Time;durP1;ratioP1;P1;durP2;ratioP2;P2;SDS_P1;SDS_P2;PMS_P1;PMS_P2;Temp;Humidity;BMP_temperature;BMP_pressure;BME280_temperature;BME280_humidity;BME280_pressure;Samples;Min_cycle;Max_cycle;Signal;HPM_P1;HPM_P2
2022/04/12 00:00:07;;;;;;;;;;;;;;;;;;5123795;27;1283;-72
2022/04/12 00:02:33;;;;;;;;;;;;;;;;;;5115370;27;1280;-72
2022/04/12 00:04:58;;;;;;;;;;;;;;;;;;5123818;27;1893;-72
2022/04/12 00:07:23;;;;;;;;;;;;;;;;;;5106183;27;1284;-72
2022/04/12 00:09:48;;;;;;;;;;;;;;;;;;5103297;28;1151;-72
2022/04/12 00:12:15;;;;;;;;;;;;;;;;;;5108718;28;1430;-72
2022/04/12 00:14:41;;;;;;;;;;;;;;;;;;5086871;28;1301;-73
2022/04/12 00:19:50;;;;;;;;;;;;;;;;;;5124309;28;996;-72
2022/04/12 00:22:16;;;;;;;;;;;;;;;;;;5118880;27;1174;-73
2022/04/12 00:24:41;;;;;;;;;;;;;;;;;;5116682;27;1913;-73
2022/04/12 00:27:06;;;;;;;;;;;;;;;;;;5121236;28;1195;-73
2022/04/12 00:29:33;;;;;;;;;;;;;;;;;;5125168;27;1302;-72
2022/04/12 00:31:58;;;;;;;;;;;;;;;;;;5107641;27;1229;-73
2022/04/12 00:34:24;;;;;;;;;;;;;;;;;;5130367;27;1245;-72
2022/04/12 00:36:50;;;;;;;;;;;;;;;;;;5123462;27;1223;-72
2022/04/12 00:39:15;;;;;;;;;;;;;;;;;;5088897;28;1215;-73
2022/04/12 00:41:40;;;;;;;;;;;;;;;;;;5101879;28;1164;-73
2022/04/12 00:44:05;;;;;;;;;;;;;;;;;;5106904;28;1977;-73
2022/04/12 00:46:30;;;;;;;;;;;;;;;;;;5106194;28;1399;-72
2022/04/12 00:48:56;;;;;;;;;;;;;;;;;;5106059;28;1180;-72
2022/04/12 00:51:22;;;;;;;;;;;;;;;;;;5101429;27;1286;-72
2022/04/12 00:53:48;;;;;;;;;;;;;;;;;;5122596;27;1075;-72
2022/04/12 00:56:14;;;;;;;;;;;;;;;;;;5100423;28;1245;-73
2022/04/12 00:58:44;;;;;;;;;;;;;;;;;;5108647;28;1104;-73
2022/04/12 01:01:10;;;;;;;;;;;;;;;;;;5088703;28;1329;-72
2022/04/12 01:03:36;;;;;;;;;;;;;;;;;;5113961;27;1909;-72
2022/04/12 01:06:01;;;;;;;;;;;;;;;;;;5132615;27;1431;-72
2022/04/12 01:08:27;;;;;;;;;;;;;;;;;;5133603;27;1253;-72
2022/04/12 01:10:53;;;;;;;;;;;;;;;;;;5122782;27;1216;-72
2022/04/12 01:13:18;;;;;;;;;;;;;;;;;;5110846;27;1135;-72
2022/04/12 01:15:43;;;;;;;;;;;;;;;;;;5106785;27;1147;-72
2022/04/12 01:18:10;;;;;;;;;;;;;;;;;;5086608;28;1206;-73
2022/04/12 01:20:44;;;;;;;;;;;;;;;;;;5104082;28;1160;-72
2022/04/12 01:23:15;;;;;;;;;;;;;;;;;;5105419;28;1967;-72
2022/04/12 01:25:41;;;;;;;;;;;;;;;;;;5098168;28;1208;-72
2022/04/12 01:28:07;;;;;;;;;;;;;;;;;;5104429;28;1153;-72
2022/04/12 01:30:32;;;;;;;;;;;;;;;;;;5103889;28;1423;-73
2022/04/12 01:32:58;;;;;;;;;;;;;;;;;;5121064;27;1242;-74
2022/04/12 01:35:23;;;;;;;;;;;;;;;;;;5123099;27;1239;-72
2022/04/12 01:37:48;;;;;;;;;;;;;;;;;;5104330;27;1306;-72
2022/04/12 01:40:17;;;;;;;;;;;;;;;;;;5100210;27;1151;-73
2022/04/12 01:42:46;;;;;;;;;;;;;;;;;;5120462;27;2002;-73
2022/04/12 01:45:11;;;;;;;;;;;;;;;;;;5122646;27;1190;-73
2022/04/12 01:47:37;;;;;;;;;;;;;;;;;;5126281;27;1158;-73
2022/04/12 01:50:03;;;;;;;;;;;;;;;;;;5103067;27;1295;-73
2022/04/12 01:52:28;;;;;;;;;;;;;;;;;;5100328;28;1147;-73
2022/04/12 01:54:53;;;;;;;;;;;;;;;;;;5110878;27;1187;-73
2022/04/12 01:57:18;;;;;;;;;;;;;;;;;;5123077;27;1127;-73
2022/04/12 01:59:44;;;;;;;;;;;;;;;;;;5106364;27;1368;-74
2022/04/12 02:02:10;;;;;;;;;;;;;;;;;;5121694;27;1128;-73
2022/04/12 02:04:35;;;;;;;;;;;;;;;;;;5126946;27;1906;-72
2022/04/12 02:07:00;;;;;;;;;;;;;;;;;;5120214;27;1232;-72
2022/04/12 02:09:26;;;;;;;;;;;;;;;;;;5124321;27;1167;-72
2022/04/12 02:11:53;;;;;;;;;;;;;;;;;;5120071;27;1206;-71
2022/04/12 02:14:18;;;;;;;;;;;;;;;;;;5125693;27;1266;-73
2022/04/12 02:16:44;;;;;;;;;;;;;;;;;;5122961;27;1335;-73
2022/04/12 02:19:10;;;;;;;;;;;;;;;;;;5123745;27;1131;-73
2022/04/12 02:21:35;;;;;;;;;;;;;;;;;;5103962;27;1412;-73
2022/04/12 02:24:01;;;;;;;;;;;;;;;;;;5119473;27;1924;-73
2022/04/12 02:26:26;;;;;;;;;;;;;;;;;;5103545;27;1188;-73
2022/04/12 02:28:51;;;;;;;;;;;;;;;;;;5104920;27;1257;-73
2022/04/12 02:31:16;;;;;;;;;;;;;;;;;;5124186;27;1152;-73
2022/04/12 02:33:41;;;;;;;;;;;;;;;;;;5115238;27;1171;-73
2022/04/12 02:36:07;;;;;;;;;;;;;;;;;;5098015;27;1143;-72
2022/04/12 02:38:40;;;;;;;;;;;;;;;;;;5103956;28;1203;-73
2022/04/12 02:41:07;;;;;;;;;;;;;;;;;;5120283;27;1088;-73
2022/04/12 02:43:34;;;;;;;;;;;;;;;;;;5128867;27;1909;-73
2022/04/12 02:45:59;;;;;;;;;;;;;;;;;;5102376;27;1199;-72
2022/04/12 02:48:24;;;;;;;;;;;;;;;;;;5104652;28;1147;-73
2022/04/12 02:50:50;;;;;;;;;;;;;;;;;;5082888;28;1305;-73
2022/04/12 02:53:16;;;;;;;;;;;;;;;;;;5106589;27;1048;-72
2022/04/12 02:55:41;;;;;;;;;;;;;;;;;;5113094;27;1184;-72
2022/04/12 02:58:06;;;;;;;;;;;;;;;;;;5100532;28;1092;-72
2022/04/12 03:00:32;;;;;;;;;;;;;;;;;;5103565;27;1227;-72
2022/04/12 03:02:57;;;;;;;;;;;;;;;;;;5102917;28;1956;-73
2022/04/12 03:05:23;;;;;;;;;;;;;;;;;;5115809;27;1171;-72
2022/04/12 03:07:48;;;;;;;;;;;;;;;;;;5118855;27;1131;-72
2022/04/12 03:10:14;;;;;;;;;;;;;;;;;;5109274;27;1268;-72
2022/04/12 03:12:39;;;;;;;;;;;;;;;;;;5102836;28;1298;-72
2022/04/12 03:15:07;;;;;;;;;;;;;;;;;;5101747;28;1044;-71
2022/04/12 03:17:32;;;;;;;;;;;;;;;;;;5121533;27;1182;-72
2022/04/12 03:19:57;;;;;;;;;;;;;;;;;;5122068;27;1362;-72
2022/04/12 03:22:22;;;;;;;;;;;;;;;;;;5122033;27;1297;-73
2022/04/12 03:24:47;;;;;;;;;;;;;;;;;;5122867;27;1889;-72
2022/04/12 03:27:13;;;;;;;;;;;;;;;;;;5108766;27;1206;-72
2022/04/12 03:29:38;;;;;;;;;;;;;;;;;;5103535;27;1215;-72
2022/04/12 03:32:03;;;;;;;;;;;;;;;;;;5101039;28;1219;-72
2022/04/12 03:34:29;;;;;;;;;;;;;;;;;;5111521;27;1364;-72
2022/04/12 03:36:54;;;;;;;;;;;;;;;;;;5108830;28;1248;-72
2022/04/12 03:39:19;;;;;;;;;;;;;;;;;;5100985;28;1154;-73
2022/04/12 03:41:45;;;;;;;;;;;;;;;;;;5083102;28;1250;-73
2022/04/12 03:44:11;;;;;;;;;;;;;;;;;;5101515;28;1910;-71
2022/04/12 03:46:36;;;;;;;;;;;;;;;;;;5102400;28;1219;-71
2022/04/12 03:49:01;;;;;;;;;;;;;;;;;;5120253;27;1029;-72
2022/04/12 03:51:27;;;;;;;;;;;;;;;;;;5100970;27;1266;-72
2022/04/12 03:53:53;;;;;;;;;;;;;;;;;;5099687;28;1231;-72
2022/04/12 03:56:19;;;;;;;;;;;;;;;;;;5095970;27;1225;-72
2022/04/12 03:58:44;;;;;;;;;;;;;;;;;;5120736;27;1282;-72
2022/04/12 04:01:10;;;;;;;;;;;;;;;;;;5118767;27;1138;-72
2022/04/12 04:03:35;;;;;;;;;;;;;;;;;;5106762;27;1958;-72
2022/04/12 04:06:01;;;;;;;;;;;;;;;;;;5117937;27;1410;-72
2022/04/12 04:08:27;;;;;;;;;;;;;;;;;;5111290;27;1267;-73
2022/04/12 04:10:53;;;;;;;;;;;;;;;;;;5115501;27;1178;-72
2022/04/12 04:13:18;;;;;;;;;;;;;;;;;;5122624;27;1212;-72
2022/04/12 04:15:45;;;;;;;;;;;;;;;;;;5104971;28;1210;-71
2022/04/12 04:18:11;;;;;;;;;;;;;;;;;;5120585;27;1246;-72
2022/04/12 04:20:46;;;;;;;;;;;;;;;;;;5123942;27;1309;-72
2022/04/12 04:23:11;;;;;;;;;;;;;;;;;;5121047;28;1961;-72
2022/04/12 04:25:36;;;;;;;;;;;;;;;;;;5116602;28;1292;-72
2022/04/12 04:28:02;;;;;;;;;;;;;;;;;;5107447;28;1127;-72
2022/04/12 04:30:28;;;;;;;;;;;;;;;;;;5087914;28;1484;-72
2022/04/12 04:32:56;;;;;;;;;;;;;;;;;;5105820;28;1312;-72
2022/04/12 04:35:22;;;;;;;;;;;;;;;;;;5102972;28;1162;-72
2022/04/12 04:37:48;;;;;;;;;;;;;;;;;;5123093;27;999;-72
2022/04/12 04:40:14;;;;;;;;;;;;;;;;;;5116718;27;1050;-72
2022/04/12 04:42:40;;;;;;;;;;;;;;;;;;5125261;27;1112;-72
2022/04/12 04:45:11;;;;;;;;;;;;;;;;;;5104355;28;1906;-73
2022/04/12 04:47:47;;;;;;;;;;;;;;;;;;5106932;28;1171;-74
2022/04/12 04:50:12;;;;;;;;;;;;;;;;;;5119822;28;1207;-72
2022/04/12 04:52:38;;;;;;;;;;;;;;;;;;5123488;27;1107;-72
2022/04/12 04:55:07;;;;;;;;;;;;;;;;;;5118404;28;1192;-71
2022/04/12 04:57:36;;;;;;;;;;;;;;;;;;5122525;28;1359;-72
2022/04/12 05:00:06;;;;;;;;;;;;;;;;;;5123376;27;1155;-72
2022/04/12 05:02:32;;;;;;;;;;;;;;;;;;5121721;28;1252;-72
2022/04/12 05:05:07;;;;;;;;;;;;;;;;;;5106216;28;1885;-72
2022/04/12 05:07:32;;;;;;;;;;;;;;;;;;5103002;27;1095;-72
2022/04/12 05:10:00;;;;;;;;;;;;;;;;;;5082536;28;1255;-73
2022/04/12 05:12:26;;;;;;;;;;;;;;;;;;5082684;28;1118;-72
2022/04/12 05:14:52;;;;;;;;;;;;;;;;;;5103190;28;1237;-73
2022/04/12 05:17:27;;;;;;;;;;;;;;;;;;5100407;28;1407;-73
2022/04/12 05:19:52;;;;;;;;;;;;;;;;;;5126328;27;1116;-74
2022/04/12 05:22:18;;;;;;;;;;;;;;;;;;5121635;27;1286;-74
2022/04/12 05:24:43;;;;;;;;;;;;;;;;;;5125821;27;1952;-75
2022/04/12 05:27:08;;;;;;;;;;;;;;;;;;5107514;27;1289;-74
2022/04/12 05:29:33;;;;;;;;;;;;;;;;;;5111926;27;1055;-74
2022/04/12 05:32:00;;;;;;;;;;;;;;;;;;5129041;27;1230;-74
2022/04/12 05:34:26;;;;;;;;;;;;;;;;;;5110746;27;1221;-74
2022/04/12 05:36:51;;;;;;;;;;;;;;;;;;5122979;27;1222;-74
2022/04/12 05:39:16;;;;;;;;;;;;;;;;;;5086703;28;1236;-74
2022/04/12 05:41:41;;;;;;;;;;;;;;;;;;5106320;28;1392;-74
2022/04/12 05:44:07;;;;;;;;;;;;;;;;;;5106561;28;1914;-74
2022/04/12 05:46:32;;;;;;;;;;;;;;;;;;5106861;28;1183;-74
2022/04/12 05:48:57;;;;;;;;;;;;;;;;;;5125205;27;1309;-73
2022/04/12 05:51:23;;;;;;;;;;;;;;;;;;5125833;27;1326;-74
2022/04/12 05:53:48;;;;;;;;;;;;;;;;;;5128222;27;1214;-74
2022/04/12 05:56:13;;;;;;;;;;;;;;;;;;5124169;27;1261;-75
2022/04/12 05:58:40;;;;;;;;;;;;;;;;;;5130623;27;1273;-75
2022/04/12 06:01:06;;;;;;;;;;;;;;;;;;5127738;27;1357;-75
2022/04/12 06:03:31;;;;;;;;;;;;;;;;;;5111692;27;1894;-75
2022/04/12 06:05:56;;;;;;;;;;;;;;;;;;5107991;27;1178;-74
2022/04/12 06:08:21;;;;;;;;;;;;;;;;;;5097139;27;1180;-74
2022/04/12 06:10:46;;;;;;;;;;;;;;;;;;5116637;27;1183;-75
2022/04/12 06:13:12;;;;;;;;;;;;;;;;;;5104604;28;1128;-74
2022/04/12 06:15:37;;;;;;;;;;;;;;;;;;5122998;27;1368;-75
2022/04/12 06:18:08;;;;;;;;;;;;;;;;;;5127552;27;1238;-75
2022/04/12 06:20:34;;;;;;;;;;;;;;;;;;5128142;27;1083;-74
2022/04/12 06:23:00;;;;;;;;;;;;;;;;;;5126465;27;1947;-75
2022/04/12 06:25:25;;;;;;;;;;;;;;;;;;5110948;27;1322;-75
2022/04/12 06:27:51;;;;;;;;;;;;;;;;;;5128704;27;1155;-75
2022/04/12 06:30:19;;;;;;;;;;;;;;;;;;5126912;27;1217;-74
2022/04/12 06:32:44;;;;;;;;;;;;;;;;;;5126836;27;1379;-75
2022/04/12 06:35:11;;;;;;;;;;;;;;;;;;5125151;27;1375;-73
2022/04/12 06:37:36;;;;;;;;;;;;;;;;;;5111609;27;1163;-74
2022/04/12 06:40:02;;;;;;;;;;;;;;;;;;5125968;27;1202;-75
2022/04/12 06:42:28;;;;;;;;;;;;;;;;;;5124099;27;1515;-75
2022/04/12 06:44:53;;;;;;;;;;;;;;;;;;5126750;27;1967;-74
2022/04/12 06:47:18;;;;;;;;;;;;;;;;;;5126626;27;1321;-74
2022/04/12 06:49:48;;;;;;;;;;;;;;;;;;5109348;27;1205;-75
2022/04/12 06:52:14;;;;;;;;;;;;;;;;;;5119704;27;1181;-75
2022/04/12 06:54:40;;;;;;;;;;;;;;;;;;5101701;28;1206;-74
2022/04/12 06:57:06;;;;;;;;;;;;;;;;;;5086833;28;1617;-75
2022/04/12 06:59:32;;;;;;;;;;;;;;;;;;5102884;28;1245;-75
2022/04/12 07:01:57;;;;;;;;;;;;;;;;;;5103212;28;1293;-73
2022/04/12 07:04:22;;;;;;;;;;;;;;;;;;5102999;28;1901;-74
2022/04/12 07:06:48;;;;;;;;;;;;;;;;;;5100741;28;1203;-74
2022/04/12 07:09:20;;;;;;;;;;;;;;;;;;5081902;28;1223;-74
2022/04/12 07:11:49;;;;;;;;;;;;;;;;;;5105024;27;1357;-74
2022/04/12 07:14:14;;;;;;;;;;;;;;;;;;5123810;27;1066;-74
2022/04/12 07:16:40;;;;;;;;;;;;;;;;;;5124002;27;1389;-73
2022/04/12 07:19:06;;;;;;;;;;;;;;;;;;5106271;27;1308;-73
2022/04/12 07:21:31;;;;;;;;;;;;;;;;;;5120764;27;1072;-74
2022/04/12 07:23:59;;;;;;;;;;;;;;;;;;5105741;27;1893;-74
2022/04/12 07:26:24;;;;;;;;;;;;;;;;;;5121185;27;1241;-74
2022/04/12 07:28:51;;;;;;;;;;;;;;;;;;5124632;27;1265;-76
2022/04/12 07:31:16;;;;;;;;;;;;;;;;;;5122515;27;1124;-74
2022/04/12 07:33:41;;;;;;;;;;;;;;;;;;5126400;27;1134;-75
2022/04/12 07:36:06;;;;;;;;;;;;;;;;;;5105122;27;1216;-74
2022/04/12 07:38:35;;;;;;;;;;;;;;;;;;5120739;27;1266;-74
2022/04/12 07:41:00;;;;;;;;;;;;;;;;;;5106516;27;1145;-74
2022/04/12 07:43:26;;;;;;;;;;;;;;;;;;5123690;27;1906;-73
2022/04/12 07:45:52;;;;;;;;;;;;;;;;;;5124844;27;1463;-74
2022/04/12 07:48:17;;;;;;;;;;;;;;;;;;5108728;27;1132;-74
2022/04/12 07:50:43;;;;;;;;;;;;;;;;;;5121935;27;1256;-75
2022/04/12 07:53:08;;;;;;;;;;;;;;;;;;5126032;27;1143;-75
2022/04/12 07:55:33;;;;;;;;;;;;;;;;;;5118800;27;1252;-74
2022/04/12 07:57:58;;;;;;;;;;;;;;;;;;5107502;27;1185;-74
2022/04/12 08:00:24;;;;;;;;;;;;;;;;;;5121575;27;1279;-76
2022/04/12 08:02:49;;;;;;;;;;;;;;;;;;5125667;27;1142;-74
2022/04/12 08:05:15;;;;;;;;;;;;;;;;;;5123054;27;1967;-74
2022/04/12 08:07:47;;;;;;;;;;;;;;;;;;5120155;27;1391;-75
2022/04/12 08:10:18;;;;;;;;;;;;;;;;;;5120458;27;1444;-74
2022/04/12 08:12:44;;;;;;;;;;;;;;;;;;5121959;27;1529;-74
2022/04/12 08:15:14;;;;;;;;;;;;;;;;;;5122445;27;1330;-75
2022/04/12 08:17:40;;;;;;;;;;;;;;;;;;5122426;27;1186;-74
2022/04/12 08:20:06;;;;;;;;;;;;;;;;;;5124330;27;1167;-74
2022/04/12 08:22:32;;;;;;;;;;;;;;;;;;5101718;28;1221;-75
2022/04/12 08:24:58;;;;;;;;;;;;;;;;;;5121739;27;1890;-74
2022/04/12 08:27:24;;;;;;;;;;;;;;;;;;5097698;28;1271;-73
2022/04/12 08:29:49;;;;;;;;;;;;;;;;;;5104440;28;1175;-74
2022/04/12 08:32:24;;;;;;;;;;;;;;;;;;5100266;28;1216;-74
2022/04/12 08:34:49;;;;;;;;;;;;;;;;;;5102634;28;1496;-74
2022/04/12 08:37:15;;;;;;;;;;;;;;;;;;5117054;28;1171;-74
2022/04/12 08:39:41;;;;;;;;;;;;;;;;;;5120205;28;1172;-74
2022/04/12 08:42:06;;;;;;;;;;;;;;;;;;5119476;28;1309;-74
2022/04/12 08:44:33;;;;;;;;;;;;;;;;;;5111045;28;2253;-74
2022/04/12 08:47:01;;;;;;;;;;;;;;;;;;5100094;28;1187;-74
2022/04/12 08:49:27;;;;;;;;;;;;;;;;;;5102165;28;1163;-74
2022/04/12 08:51:52;;;;;;;;;;;;;;;;;;5083172;28;1160;-76
2022/04/12 08:54:19;;;;;;;;;;;;;;;;;;5105507;28;1182;-74
2022/04/12 08:56:48;;;;;;;;;;;;;;;;;;5103731;28;1144;-73
2022/04/12 08:59:13;;;;;;;;;;;;;;;;;;5124065;27;1324;-75
2022/04/12 09:01:39;;;;;;;;;;;;;;;;;;5123516;27;1163;-74
2022/04/12 09:04:04;;;;;;;;;;;;;;;;;;5106608;27;1951;-73
2022/04/12 09:06:30;;;;;;;;;;;;;;;;;;5085530;28;1167;-75
2022/04/12 09:09:08;;;;;;;;;;;;;;;;;;5104837;28;1179;-74
2022/04/12 09:11:35;;;;;;;;;;;;;;;;;;5118531;27;1019;-76
2022/04/12 09:14:00;;;;;;;;;;;;;;;;;;5125131;27;1295;-75
2022/04/12 09:16:25;;;;;;;;;;;;;;;;;;5104518;28;1211;-75
2022/04/12 09:18:51;;;;;;;;;;;;;;;;;;5105049;28;1156;-75
2022/04/12 09:21:20;;;;;;;;;;;;;;;;;;5103564;28;1257;-75
2022/04/12 09:23:50;;;;;;;;;;;;;;;;;;5102670;28;1917;-74
2022/04/12 09:26:23;;;;;;;;;;;;;;;;;;5121552;27;1265;-76
2022/04/12 09:28:50;;;;;;;;;;;;;;;;;;5127336;27;1419;-75
2022/04/12 09:31:17;;;;;;;;;;;;;;;;;;5126402;27;1143;-74
2022/04/12 09:33:43;;;;;;;;;;;;;;;;;;5125461;27;1330;-74
2022/04/12 09:36:09;;;;;;;;;;;;;;;;;;5122178;27;1157;-75
2022/04/12 09:38:39;;;;;;;;;;;;;;;;;;5104213;28;1155;-75
2022/04/12 09:41:15;;;;;;;;;;;;;;;;;;5122225;27;1182;-75
2022/04/12 09:44:08;;;;;;;;;;;;;;;;;;5124154;27;1909;-76
2022/04/12 09:46:35;;;;;;;;;;;;;;;;;;5125334;27;1698;-74
2022/04/12 09:49:00;;;;;;;;;;;;;;;;;;5108271;27;1285;-77
2022/04/12 09:51:28;;;;;;;;;;;;;;;;;;5103241;28;1183;-73
2022/04/12 09:53:54;;;;;;;;;;;;;;;;;;5123432;27;1119;-75
2022/04/12 09:56:24;;;;;;;;;;;;;;;;;;5124769;27;1268;-74
2022/04/12 09:58:51;;;;;;;;;;;;;;;;;;5125644;27;1140;-74
2022/04/12 10:01:17;;;;;;;;;;;;;;;;;;5126179;27;1151;-73
2022/04/12 10:03:47;;;;;;;;;;;;;;;;;;5108195;27;1994;-74
2022/04/12 10:06:16;;;;;;;;;;;;;;;;;;5125692;27;1143;-74
2022/04/12 10:08:42;;;;;;;;;;;;;;;;;;5121816;27;1159;-75
2022/04/12 10:11:08;;;;;;;;;;;;;;;;;;5125037;27;1185;-73
2022/04/12 10:13:33;;;;;;;;;;;;;;;;;;5122826;27;1305;-73
2022/04/12 10:15:59;;;;;;;;;;;;;;;;;;5127012;27;1221;-74
2022/04/12 10:18:25;;;;;;;;;;;;;;;;;;5125547;27;1173;-74
2022/04/12 10:20:51;;;;;;;;;;;;;;;;;;5107499;27;1159;-75
2022/04/12 10:23:17;;;;;;;;;;;;;;;;;;5106172;28;1925;-74
2022/04/12 10:25:43;;;;;;;;;;;;;;;;;;5105366;27;1088;-74
2022/04/12 10:28:08;;;;;;;;;;;;;;;;;;5126038;27;1212;-75
2022/04/12 10:30:34;;;;;;;;;;;;;;;;;;5125574;27;1185;-75
2022/04/12 10:33:07;;;;;;;;;;;;;;;;;;5108149;27;1203;-74
2022/04/12 10:35:45;;;;;;;;;;;;;;;;;;5123553;27;1036;-75
2022/04/12 10:38:34;;;;;;;;;;;;;;;;;;5125327;27;1199;-74
2022/04/12 10:41:00;;;;;;;;;;;;;;;;;;5112531;27;1309;-74
2022/04/12 10:43:34;;;;;;;;;;;;;;;;;;5124776;27;1910;-76
2022/04/12 10:46:00;;;;;;;;;;;;;;;;;;5126428;27;1158;-74
2022/04/12 10:48:31;;;;;;;;;;;;;;;;;;5125414;27;1154;-75
2022/04/12 10:50:58;;;;;;;;;;;;;;;;;;5122570;27;1151;-74
2022/04/12 10:53:36;;;;;;;;;;;;;;;;;;5126821;27;1341;-75
2022/04/12 10:56:03;;;;;;;;;;;;;;;;;;5113025;27;1270;-74
2022/04/12 10:58:29;;;;;;;;;;;;;;;;;;5101035;28;1313;-74
2022/04/12 11:00:55;;;;;;;;;;;;;;;;;;5109600;27;1323;-74
2022/04/12 11:03:39;;;;;;;;;;;;;;;;;;5110260;27;1972;-75
2022/04/12 11:06:14;;;;;;;;;;;;;;;;;;5123357;27;1174;-74
2022/04/12 11:08:43;;;;;;;;;;;;;;;;;;5118145;27;1103;-74
2022/04/12 11:11:10;;;;;;;;;;;;;;;;;;5103076;28;1144;-74
2022/04/12 11:13:35;;;;;;;;;;;;;;;;;;5102767;28;1363;-75
2022/04/12 11:16:03;;;;;;;;;;;;;;;;;;5105521;28;1055;-74
2022/04/12 11:18:51;;;;;;;;;;;;;;;;;;5104150;28;1432;-75
2022/04/12 11:21:17;;;;;;;;;;;;;;;;;;5120663;27;1412;-75
2022/04/12 11:23:47;;;;;;;;;;;;;;;;;;5124170;27;1972;-75
2022/04/12 11:26:26;;;;;;;;;;;;;;;;;;5124043;27;1163;-74
2022/04/12 11:28:54;;;;;;;;;;;;;;;;;;5120795;27;1178;-73
2022/04/12 11:31:21;;;;;;;;;;;;;;;;;;5104080;28;1355;-74
2022/04/12 11:33:48;;;;;;;;;;;;;;;;;;5123368;27;1119;-74
2022/04/12 11:36:16;;;;;;;;;;;;;;;;;;5122756;27;1290;-74
2022/04/12 11:38:41;;;;;;;;;;;;;;;;;;5105893;27;1203;-75
2022/04/12 11:41:06;;;;;;;;;;;;;;;;;;5101476;28;1128;-76
2022/04/12 11:43:32;;;;;;;;;;;;;;;;;;5086180;28;1915;-75
2022/04/12 11:45:58;;;;;;;;;;;;;;;;;;5109642;27;1348;-76
2022/04/12 11:48:31;;;;;;;;;;;;;;;;;;5125911;27;1047;-75
2022/04/12 11:50:57;;;;;;;;;;;;;;;;;;5104465;27;1110;-74
2022/04/12 11:53:23;;;;;;;;;;;;;;;;;;5103480;28;1170;-74
2022/04/12 11:55:49;;;;;;;;;;;;;;;;;;5101529;28;1139;-74
2022/04/12 11:58:18;;;;;;;;;;;;;;;;;;5120673;27;1338;-74
2022/04/12 12:00:43;;;;;;;;;;;;;;;;;;5122870;27;1230;-75
2022/04/12 12:03:18;;;;;;;;;;;;;;;;;;5124420;27;1131;-74
2022/04/12 12:05:44;;;;;;;;;;;;;;;;;;5121106;27;1044;-73
2022/04/12 12:08:10;;;;;;;;;;;;;;;;;;5104481;27;1278;-74
2022/04/12 12:10:35;;;;;;;;;;;;;;;;;;5121234;27;1192;-73
2022/04/12 12:13:04;;;;;;;;;;;;;;;;;;5123829;27;1194;-73
2022/04/12 12:15:29;;;;;;;;;;;;;;;;;;5121336;27;1226;-74
2022/04/12 12:18:06;;;;;;;;;;;;;;;;;;5123330;27;1182;-74
2022/04/12 12:20:41;;;;;;;;;;;;;;;;;;5121908;27;1330;-75
2022/04/12 12:23:08;;;;;;;;;;;;;;;;;;5122121;28;1322;-76
2022/04/12 12:25:37;;;;;;;;;;;;;;;;;;5120213;27;1885;-75
2022/04/12 12:28:08;;;;;;;;;;;;;;;;;;5111146;27;1382;-74
2022/04/12 12:30:39;;;;;;;;;;;;;;;;;;5126948;27;1212;-74
2022/04/12 12:33:05;;;;;;;;;;;;;;;;;;5111549;27;1253;-74
2022/04/12 12:35:37;;;;;;;;;;;;;;;;;;5129657;27;1167;-74
2022/04/12 12:38:10;;;;;;;;;;;;;;;;;;5128235;27;1228;-74
2022/04/12 12:40:39;;;;;;;;;;;;;;;;;;5121310;27;1222;-74
2022/04/12 12:43:06;;;;;;;;;;;;;;;;;;5108599;27;1234;-75
2022/04/12 12:45:38;;;;;;;;;;;;;;;;;;5108194;27;1913;-74
2022/04/12 12:48:06;;;;;;;;;;;;;;;;;;5110595;27;1213;-74
2022/04/12 12:50:42;;;;;;;;;;;;;;;;;;5108260;27;1253;-75
2022/04/12 12:53:09;;;;;;;;;;;;;;;;;;5131062;27;1111;-74
2022/04/12 12:55:44;;;;;;;;;;;;;;;;;;5126050;27;1071;-74
2022/04/12 12:58:13;;;;;;;;;;;;;;;;;;5131450;27;1025;-74
2022/04/12 13:00:39;;;;;;;;;;;;;;;;;;5129061;27;1194;-74
2022/04/12 13:03:05;;;;;;;;;;;;;;;;;;5131047;27;1246;-75
2022/04/12 13:05:44;;;;;;;;;;;;;;;;;;5129780;27;1890;-75
2022/04/12 13:08:09;;;;;;;;;;;;;;;;;;5131315;27;1243;-74
2022/04/12 13:10:38;;;;;;;;;;;;;;;;;;5126351;27;1326;-75
2022/04/12 13:13:06;;;;;;;;;;;;;;;;;;5130762;27;1378;-75
2022/04/12 13:15:33;;;;;;;;;;;;;;;;;;5130977;27;1083;-75
2022/04/12 13:17:59;;;;;;;;;;;;;;;;;;5127379;27;1188;-74
2022/04/12 13:20:24;;;;;;;;;;;;;;;;;;5131470;27;1223;-74
2022/04/12 13:22:49;;;;;;;;;;;;;;;;;;5129622;27;1084;-74
2022/04/12 13:25:17;;;;;;;;;;;;;;;;;;5109082;27;1933;-74
2022/04/12 13:27:50;;;;;;;;;;;;;;;;;;5127901;27;1372;-74
2022/04/12 13:30:16;;;;;;;;;;;;;;;;;;5130343;27;1253;-75
2022/04/12 13:32:43;;;;;;;;;;;;;;;;;;5129112;27;1191;-75
2022/04/12 13:35:10;;;;;;;;;;;;;;;;;;5130872;27;1167;-74
2022/04/12 13:37:35;;;;;;;;;;;;;;;;;;5126466;27;1300;-74
2022/04/12 13:40:01;;;;;;;;;;;;;;;;;;5122710;27;1179;-74
2022/04/12 13:42:26;;;;;;;;;;;;;;;;;;5116582;27;1175;-75
2022/04/12 13:44:53;;;;;;;;;;;;;;;;;;5087358;28;2016;-76
2022/04/12 13:47:18;;;;;;;;;;;;;;;;;;5123330;27;1065;-77
2022/04/12 13:49:43;;;;;;;;;;;;;;;;;;5090992;28;1467;-75
2022/04/12 13:52:09;;;;;;;;;;;;;;;;;;5103835;27;1266;-74
2022/04/12 13:54:34;;;;;;;;;;;;;;;;;;5086815;28;1257;-75
2022/04/12 13:57:02;;;;;;;;;;;;;;;;;;5114992;27;1171;-75
2022/04/12 13:59:27;;;;;;;;;;;;;;;;;;5125799;27;1171;-75
2022/04/12 14:01:53;;;;;;;;;;;;;;;;;;5093800;28;1169;-74
2022/04/12 14:04:19;;;;;;;;;;;;;;;;;;5105532;28;1947;-75
2022/04/12 14:06:44;;;;;;;;;;;;;;;;;;5100486;28;1231;-76
2022/04/12 14:09:09;;;;;;;;;;;;;;;;;;5104839;28;1124;-75
2022/04/12 14:11:35;;;;;;;;;;;;;;;;;;5103975;28;1210;-77
2022/04/12 14:14:00;;;;;;;;;;;;;;;;;;5104574;28;1151;-78
2022/04/12 14:16:26;;;;;;;;;;;;;;;;;;5105169;28;1171;-75
2022/04/12 14:18:51;;;;;;;;;;;;;;;;;;5104661;27;1284;-75
2022/04/12 14:21:16;;;;;;;;;;;;;;;;;;5123778;27;1249;-76
2022/04/12 14:23:52;;;;;;;;;;;;;;;;;;5122332;27;1943;-76
2022/04/12 14:26:17;;;;;;;;;;;;;;;;;;5129310;27;1245;-75
2022/04/12 14:28:48;;;;;;;;;;;;;;;;;;5125099;27;1280;-75
2022/04/12 14:31:13;;;;;;;;;;;;;;;;;;5126632;27;1135;-75
2022/04/12 14:33:39;;;;;;;;;;;;;;;;;;5123186;27;1276;-75
2022/04/12 14:36:08;;;;;;;;;;;;;;;;;;5104664;27;1201;-75
2022/04/12 14:38:36;;;;;;;;;;;;;;;;;;5114554;27;1103;-78
2022/04/12 14:41:02;;;;;;;;;;;;;;;;;;5111125;27;1191;-76
2022/04/12 14:43:30;;;;;;;;;;;;;;;;;;5105197;28;1914;-77
2022/04/12 14:45:57;;;;;;;;;;;;;;;;;;5109613;27;1147;-77
2022/04/12 14:48:23;;;;;;;;;;;;;;;;;;5125377;27;1257;-75
2022/04/12 14:50:48;;;;;;;;;;;;;;;;;;5119778;27;1266;-76
2022/04/12 14:53:14;;;;;;;;;;;;;;;;;;5120609;27;1087;-76
2022/04/12 14:55:40;;;;;;;;;;;;;;;;;;5110460;28;1345;-77
2022/04/12 14:58:05;;;;;;;;;;;;;;;;;;5109489;28;1253;-74
2022/04/12 15:00:31;;;;;;;;;;;;;;;;;;5102297;28;1163;-73
2022/04/12 15:02:57;;;;;;;;;;;;;;;;;;5086634;28;1218;-73
2022/04/12 15:05:22;;;;;;;;;;;;;;;;;;5088433;28;2344;-74
2022/04/12 15:07:48;;;;;;;;;;;;;;;;;;5084416;28;1135;-73
2022/04/12 15:10:13;;;;;;;;;;;;;;;;;;5102115;28;1436;-74
2022/04/12 15:12:38;;;;;;;;;;;;;;;;;;5093290;27;1199;-75
2022/04/12 15:15:05;;;;;;;;;;;;;;;;;;5106992;27;1256;-73
2022/04/12 15:17:31;;;;;;;;;;;;;;;;;;5124710;27;1622;-73
2022/04/12 15:19:56;;;;;;;;;;;;;;;;;;5125311;27;1267;-74
2022/04/12 15:22:21;;;;;;;;;;;;;;;;;;5120985;27;1148;-73
2022/04/12 15:24:48;;;;;;;;;;;;;;;;;;5121804;27;1956;-73
2022/04/12 15:27:13;;;;;;;;;;;;;;;;;;5102643;27;1278;-74
2022/04/12 15:29:38;;;;;;;;;;;;;;;;;;5123407;27;1338;-72
2022/04/12 15:32:04;;;;;;;;;;;;;;;;;;5094880;28;1201;-74
2022/04/12 15:34:29;;;;;;;;;;;;;;;;;;5120175;27;1310;-74
2022/04/12 15:36:55;;;;;;;;;;;;;;;;;;5120215;27;1156;-73
2022/04/12 15:39:24;;;;;;;;;;;;;;;;;;5114511;27;1284;-73
2022/04/12 15:41:53;;;;;;;;;;;;;;;;;;5098068;28;1206;-70
2022/04/12 15:44:19;;;;;;;;;;;;;;;;;;5120736;27;1926;-71
2022/04/12 15:46:44;;;;;;;;;;;;;;;;;;5120157;27;1270;-72
2022/04/12 15:49:10;;;;;;;;;;;;;;;;;;5121405;27;1214;-72
2022/04/12 15:51:35;;;;;;;;;;;;;;;;;;5119136;27;1127;-71
2022/04/12 15:54:01;;;;;;;;;;;;;;;;;;5112018;27;1124;-72
2022/04/12 15:56:30;;;;;;;;;;;;;;;;;;5103499;27;1150;-72
2022/04/12 15:58:55;;;;;;;;;;;;;;;;;;5099001;27;1280;-71
2022/04/12 16:01:21;;;;;;;;;;;;;;;;;;5118600;27;1334;-70
2022/04/12 16:03:46;;;;;;;;;;;;;;;;;;5117490;27;1886;-72
2022/04/12 16:06:12;;;;;;;;;;;;;;;;;;5116098;27;1059;-71
2022/04/12 16:08:37;;;;;;;;;;;;;;;;;;5119597;27;1114;-71
2022/04/12 16:11:05;;;;;;;;;;;;;;;;;;5113846;27;1222;-72
2022/04/12 16:13:33;;;;;;;;;;;;;;;;;;5098834;27;1249;-71
2022/04/12 16:15:58;;;;;;;;;;;;;;;;;;5091747;28;1163;-71
2022/04/12 16:18:24;;;;;;;;;;;;;;;;;;5099569;28;1159;-72
2022/04/12 16:20:49;;;;;;;;;;;;;;;;;;5103643;28;1131;-71
2022/04/12 16:23:14;;;;;;;;;;;;;;;;;;5102187;28;1186;-70
2022/04/12 16:25:39;;;;;;;;;;;;;;;;;;5076085;28;1996;-70
2022/04/12 16:28:05;;;;;;;;;;;;;;;;;;5114531;28;1190;-70
2022/04/12 16:30:30;;;;;;;;;;;;;;;;;;5102070;28;1357;-71
2022/04/12 16:32:58;;;;;;;;;;;;;;;;;;5104213;28;1140;-71
2022/04/12 16:35:26;;;;;;;;;;;;;;;;;;5105457;28;1112;-71
2022/04/12 16:37:52;;;;;;;;;;;;;;;;;;5105365;28;1151;-71
2022/04/12 16:40:18;;;;;;;;;;;;;;;;;;5129394;28;1330;-71
2022/04/12 16:42:43;;;;;;;;;;;;;;;;;;5128644;28;1201;-71
2022/04/12 16:45:08;;;;;;;;;;;;;;;;;;5128616;28;1922;-72
2022/04/12 16:47:34;;;;;;;;;;;;;;;;;;5110742;27;1111;-71
2022/04/12 16:49:59;;;;;;;;;;;;;;;;;;5103652;28;1171;-73
2022/04/12 16:52:25;;;;;;;;;;;;;;;;;;5104400;28;1302;-72
2022/04/12 16:54:51;;;;;;;;;;;;;;;;;;5103254;28;1135;-72
2022/04/12 16:57:17;;;;;;;;;;;;;;;;;;5097276;28;1123;-72
2022/04/12 16:59:42;;;;;;;;;;;;;;;;;;5105194;28;1108;-72
2022/04/12 17:02:07;;;;;;;;;;;;;;;;;;5103074;28;1143;-73